Flight Track Log - Related Links

Times and Time Zones

All times are in EDT time to prevent confusion due to time zone crossing. See the SKW5294 flight status page for this flight to view local times or setup timezone preferences in your user account.

Time Position Orientation Groundspeed Altitude Reporting Facility
EDT Latitude Longitude Course Direction KTS MPH feet Rate Location/Type
Mon 07:13:24 PM 33.1167 -117.4000 270° West 198 228 3,900  Level Southern California TRACON
Mon 07:14:09 PM 33.1156 -117.4386 268° West 187 215 5,300 1,963 Climbing Los Angeles Center
Mon 07:15:11 PM 33.1097 -117.4969 263° West 182 209 7,400 1,306 Climbing Los Angeles Center
Mon 07:16:13 PM 33.1314 -117.5531 295° West 206 237 8,000 290 Climbing Los Angeles Center
Mon 07:17:00 PM 33.3060 -117.5300 312° West  Level FlightAware Approximate
Mon 07:17:15 PM 33.1800 -117.6219 310° West 225 259 8,000  Level Los Angeles Center
Mon 07:18:17 PM 33.2208 -117.6789 311° West 225 259 8,000  Level Los Angeles Center
Mon 07:19:19 PM 33.2633 -117.7364 311° West 229 264 8,000  Level Los Angeles Center
Mon 07:20:20 PM 33.3042 -117.7939 310° West 228 262 8,000  Level Los Angeles Center
Mon 07:21:22 PM 33.3442 -117.8517 310° West 226 260 8,000  Level Los Angeles Center
Mon 07:22:24 PM 33.3867 -117.9103 311° West 231 266 8,000  Level Los Angeles Center
Mon 07:23:26 PM 33.4472 -117.9339 342° North 235 270 8,000  Level Los Angeles Center
Mon 07:24:27 PM 33.5231 -117.9575 345° North 234 269 8,000 -244 Level Los Angeles Center
Mon 07:25:29 PM 33.5881 -117.9825 342° North 243 280 7,500 -454 Descending Los Angeles Center
Mon 07:26:26 PM 33.6667 -118.0167 340° North 255 293 7,100 -256 Descending Southern California TRACON
Mon 07:27:26 PM 33.7333 -118.0333 348° North 249 287 7,000 -50 Descending Southern California TRACON
Mon 07:28:26 PM 33.7833 -118.0500 345° North 245 282 7,000  Level Southern California TRACON
Mon 07:29:26 PM 33.8500 -118.0333 12° North 232 267 7,000 -500 Level Southern California TRACON
Mon 07:30:26 PM 33.9167 -118.0333 360° North 207 238 6,000 -900 Descending Southern California TRACON
Mon 07:31:26 PM 33.9500 -118.0667 320° Northwest 187 215 5,200 -843 Descending Southern California TRACON
Mon 07:32:27 PM 33.9667 -118.1333 287° West 206 237 4,300 -1,041 Descending Southern California TRACON
Mon 07:33:27 PM 33.9500 -118.2000 253° West 199 229 3,100 -1,150 Descending Southern California TRACON
Mon 07:34:27 PM 33.9500 -118.2667 270° West 199 229 2,000 -950 Descending Southern California TRACON
Mon 07:35:27 PM 33.9500 -118.3333 270° West 167 192 1,200 -725 Descending Southern California TRACON
Mon 07:35:58 PM 33.9422 -118.3411 220° Southwest 181 208 900 -511 Descending Los Angeles Center
Mon 07:37:01 PM 33.9386 -118.3856 264° West 151 174 400 -476 Descending Los Angeles Center

Login

Don't have an account? Register now (free) for customized features, flight alerts, and more!